sensor_id;sensor_type;location;lat;lon;timestamp;P1;durP1;ratioP1;P2;durP2;ratioP2
6985;SDS011;3533;51.246;6.850;2023-05-10T00:00:11;1.20;;;1.10;;
6985;SDS011;3533;51.246;6.850;2023-05-10T00:02:37;1.07;;;0.97;;
6985;SDS011;3533;51.246;6.850;2023-05-10T00:05:03;1.10;;;1.00;;
6985;SDS011;3533;51.246;6.850;2023-05-10T00:07:30;1.10;;;1.00;;
6985;SDS011;3533;51.246;6.850;2023-05-10T00:09:55;1.00;;;0.90;;
6985;SDS011;3533;51.246;6.850;2023-05-10T00:12:21;1.10;;;1.00;;
6985;SDS011;3533;51.246;6.850;2023-05-10T00:14:46;0.97;;;0.97;;
6985;SDS011;3533;51.246;6.850;2023-05-10T00:17:12;1.10;;;1.00;;
6985;SDS011;3533;51.246;6.850;2023-05-10T00:19:37;1.63;;;1.00;;
6985;SDS011;3533;51.246;6.850;2023-05-10T00:22:03;1.10;;;1.00;;
6985;SDS011;3533;51.246;6.850;2023-05-10T00:24:28;1.00;;;1.00;;
6985;SDS011;3533;51.246;6.850;2023-05-10T00:26:54;1.23;;;1.13;;
6985;SDS011;3533;51.246;6.850;2023-05-10T00:29:19;1.00;;;1.00;;
6985;SDS011;3533;51.246;6.850;2023-05-10T00:31:45;1.10;;;1.00;;
6985;SDS011;3533;51.246;6.850;2023-05-10T00:34:10;1.70;;;1.10;;
6985;SDS011;3533;51.246;6.850;2023-05-10T00:36:36;1.20;;;1.10;;
6985;SDS011;3533;51.246;6.850;2023-05-10T00:39:01;1.40;;;0.90;;
6985;SDS011;3533;51.246;6.850;2023-05-10T00:41:28;1.07;;;0.97;;
6985;SDS011;3533;51.246;6.850;2023-05-10T00:43:54;1.10;;;0.90;;
6985;SDS011;3533;51.246;6.850;2023-05-10T00:46:19;1.20;;;1.10;;
6985;SDS011;3533;51.246;6.850;2023-05-10T00:48:46;1.20;;;1.10;;
6985;SDS011;3533;51.246;6.850;2023-05-10T00:51:12;1.20;;;1.10;;
6985;SDS011;3533;51.246;6.850;2023-05-10T00:53:38;1.10;;;1.00;;
6985;SDS011;3533;51.246;6.850;2023-05-10T00:56:05;1.20;;;1.10;;
6985;SDS011;3533;51.246;6.850;2023-05-10T00:58:31;1.30;;;1.20;;
6985;SDS011;3533;51.246;6.850;2023-05-10T01:00:56;1.23;;;1.13;;
6985;SDS011;3533;51.246;6.850;2023-05-10T01:03:23;1.20;;;1.10;;
6985;SDS011;3533;51.246;6.850;2023-05-10T01:05:49;1.10;;;1.10;;
6985;SDS011;3533;51.246;6.850;2023-05-10T01:08:15;0.83;;;0.83;;
6985;SDS011;3533;51.246;6.850;2023-05-10T01:10:41;1.20;;;1.00;;
6985;SDS011;3533;51.246;6.850;2023-05-10T01:13:08;0.87;;;0.87;;
6985;SDS011;3533;51.246;6.850;2023-05-10T01:15:34;1.33;;;1.23;;
6985;SDS011;3533;51.246;6.850;2023-05-10T01:18:01;1.13;;;1.03;;
6985;SDS011;3533;51.246;6.850;2023-05-10T01:20:28;1.20;;;1.10;;
6985;SDS011;3533;51.246;6.850;2023-05-10T01:26:07;1.30;;;1.20;;
6985;SDS011;3533;51.246;6.850;2023-05-10T01:29:14;1.00;;;1.00;;
6985;SDS011;3533;51.246;6.850;2023-05-10T01:34:53;1.30;;;1.20;;
6985;SDS011;3533;51.246;6.850;2023-05-10T01:37:29;1.27;;;1.17;;
6985;SDS011;3533;51.246;6.850;2023-05-10T01:40:02;1.00;;;1.00;;
6985;SDS011;3533;51.246;6.850;2023-05-10T01:42:47;1.10;;;1.07;;
6985;SDS011;3533;51.246;6.850;2023-05-10T01:45:20;1.10;;;1.00;;
6985;SDS011;3533;51.246;6.850;2023-05-10T01:47:54;1.30;;;1.20;;
6985;SDS011;3533;51.246;6.850;2023-05-10T01:50:30;1.20;;;1.10;;
6985;SDS011;3533;51.246;6.850;2023-05-10T01:52:57;1.10;;;1.00;;
6985;SDS011;3533;51.246;6.850;2023-05-10T01:55:26;1.20;;;1.10;;
6985;SDS011;3533;51.246;6.850;2023-05-10T01:58:04;1.23;;;1.13;;
6985;SDS011;3533;51.246;6.850;2023-05-10T02:00:33;1.20;;;1.10;;
6985;SDS011;3533;51.246;6.850;2023-05-10T02:03:00;1.10;;;1.07;;
6985;SDS011;3533;51.246;6.850;2023-05-10T02:05:29;1.00;;;1.00;;
6985;SDS011;3533;51.246;6.850;2023-05-10T02:07:58;0.90;;;0.90;;
6985;SDS011;3533;51.246;6.850;2023-05-10T02:10:26;0.90;;;0.90;;
6985;SDS011;3533;51.246;6.850;2023-05-10T02:12:53;1.13;;;1.03;;
6985;SDS011;3533;51.246;6.850;2023-05-10T02:15:22;1.17;;;1.07;;
6985;SDS011;3533;51.246;6.850;2023-05-10T02:17:48;1.00;;;1.00;;
6985;SDS011;3533;51.246;6.850;2023-05-10T02:20:14;0.87;;;0.87;;
6985;SDS011;3533;51.246;6.850;2023-05-10T02:22:43;1.00;;;1.00;;
6985;SDS011;3533;51.246;6.850;2023-05-10T02:25:10;1.10;;;1.00;;
6985;SDS011;3533;51.246;6.850;2023-05-10T02:27:38;0.87;;;0.87;;
6985;SDS011;3533;51.246;6.850;2023-05-10T02:30:06;1.00;;;1.00;;
6985;SDS011;3533;51.246;6.850;2023-05-10T02:32:32;1.03;;;0.93;;
6985;SDS011;3533;51.246;6.850;2023-05-10T02:34:59;1.00;;;0.90;;
6985;SDS011;3533;51.246;6.850;2023-05-10T02:37:27;1.10;;;1.00;;
6985;SDS011;3533;51.246;6.850;2023-05-10T02:39:54;1.00;;;1.00;;
6985;SDS011;3533;51.246;6.850;2023-05-10T02:42:23;1.00;;;1.00;;
6985;SDS011;3533;51.246;6.850;2023-05-10T02:44:52;0.90;;;0.90;;
6985;SDS011;3533;51.246;6.850;2023-05-10T02:47:21;0.90;;;0.90;;
6985;SDS011;3533;51.246;6.850;2023-05-10T02:49:47;1.10;;;1.07;;
6985;SDS011;3533;51.246;6.850;2023-05-10T02:52:14;0.90;;;0.90;;
6985;SDS011;3533;51.246;6.850;2023-05-10T02:54:43;1.20;;;1.10;;
6985;SDS011;3533;51.246;6.850;2023-05-10T02:57:11;0.90;;;0.90;;
6985;SDS011;3533;51.246;6.850;2023-05-10T02:59:40;1.23;;;1.13;;
6985;SDS011;3533;51.246;6.850;2023-05-10T03:02:08;1.00;;;0.90;;
6985;SDS011;3533;51.246;6.850;2023-05-10T03:04:35;0.90;;;0.90;;
6985;SDS011;3533;51.246;6.850;2023-05-10T03:07:00;1.00;;;1.00;;
6985;SDS011;3533;51.246;6.850;2023-05-10T03:09:26;0.83;;;0.83;;
6985;SDS011;3533;51.246;6.850;2023-05-10T03:12:41;1.10;;;1.00;;
6985;SDS011;3533;51.246;6.850;2023-05-10T03:17:55;1.17;;;1.07;;
6985;SDS011;3533;51.246;6.850;2023-05-10T03:20:35;1.20;;;1.10;;
6985;SDS011;3533;51.246;6.850;2023-05-10T03:23:12;1.03;;;0.93;;
6985;SDS011;3533;51.246;6.850;2023-05-10T03:25:58;1.10;;;1.00;;
6985;SDS011;3533;51.246;6.850;2023-05-10T03:28:25;0.90;;;0.90;;
6985;SDS011;3533;51.246;6.850;2023-05-10T03:30:52;1.03;;;0.90;;
6985;SDS011;3533;51.246;6.850;2023-05-10T03:33:19;1.30;;;1.20;;
6985;SDS011;3533;51.246;6.850;2023-05-10T03:35:45;1.00;;;0.90;;
6985;SDS011;3533;51.246;6.850;2023-05-10T03:38:11;0.90;;;0.90;;
6985;SDS011;3533;51.246;6.850;2023-05-10T03:40:37;1.30;;;1.13;;
6985;SDS011;3533;51.246;6.850;2023-05-10T03:43:02;0.90;;;0.90;;
6985;SDS011;3533;51.246;6.850;2023-05-10T03:45:28;1.43;;;0.90;;
6985;SDS011;3533;51.246;6.850;2023-05-10T03:47:55;1.00;;;1.00;;
6985;SDS011;3533;51.246;6.850;2023-05-10T03:50:22;0.90;;;0.90;;
6985;SDS011;3533;51.246;6.850;2023-05-10T03:52:47;1.00;;;1.00;;
6985;SDS011;3533;51.246;6.850;2023-05-10T03:55:13;1.20;;;1.10;;
6985;SDS011;3533;51.246;6.850;2023-05-10T03:57:39;1.20;;;1.10;;
6985;SDS011;3533;51.246;6.850;2023-05-10T04:00:04;1.23;;;1.13;;
6985;SDS011;3533;51.246;6.850;2023-05-10T04:02:30;1.00;;;0.90;;
6985;SDS011;3533;51.246;6.850;2023-05-10T04:04:56;1.00;;;1.00;;
6985;SDS011;3533;51.246;6.850;2023-05-10T04:07:22;1.23;;;1.13;;
6985;SDS011;3533;51.246;6.850;2023-05-10T04:09:48;0.90;;;0.90;;
6985;SDS011;3533;51.246;6.850;2023-05-10T04:12:13;1.20;;;1.10;;
6985;SDS011;3533;51.246;6.850;2023-05-10T04:14:39;1.10;;;1.00;;
6985;SDS011;3533;51.246;6.850;2023-05-10T04:17:04;1.07;;;1.07;;
6985;SDS011;3533;51.246;6.850;2023-05-10T04:19:30;1.20;;;1.10;;
6985;SDS011;3533;51.246;6.850;2023-05-10T04:21:56;2.50;;;1.10;;
6985;SDS011;3533;51.246;6.850;2023-05-10T04:24:23;1.40;;;1.30;;
6985;SDS011;3533;51.246;6.850;2023-05-10T04:26:49;1.10;;;1.00;;
6985;SDS011;3533;51.246;6.850;2023-05-10T04:29:14;1.20;;;1.10;;
6985;SDS011;3533;51.246;6.850;2023-05-10T04:31:40;1.27;;;1.17;;
6985;SDS011;3533;51.246;6.850;2023-05-10T04:34:05;2.60;;;1.20;;
6985;SDS011;3533;51.246;6.850;2023-05-10T04:36:31;1.13;;;1.03;;
6985;SDS011;3533;51.246;6.850;2023-05-10T04:39:01;1.20;;;1.10;;
6985;SDS011;3533;51.246;6.850;2023-05-10T04:41:27;1.53;;;1.43;;
6985;SDS011;3533;51.246;6.850;2023-05-10T04:43:53;1.40;;;1.30;;
6985;SDS011;3533;51.246;6.850;2023-05-10T04:46:19;1.27;;;1.17;;
6985;SDS011;3533;51.246;6.850;2023-05-10T04:48:44;1.00;;;1.00;;
6985;SDS011;3533;51.246;6.850;2023-05-10T04:51:10;1.30;;;1.20;;
6985;SDS011;3533;51.246;6.850;2023-05-10T04:53:36;1.30;;;1.20;;
6985;SDS011;3533;51.246;6.850;2023-05-10T04:56:01;1.40;;;1.30;;
6985;SDS011;3533;51.246;6.850;2023-05-10T04:58:27;1.40;;;1.30;;
6985;SDS011;3533;51.246;6.850;2023-05-10T05:00:52;1.30;;;1.20;;
6985;SDS011;3533;51.246;6.850;2023-05-10T05:03:18;1.47;;;1.37;;
6985;SDS011;3533;51.246;6.850;2023-05-10T05:05:43;1.27;;;1.17;;
6985;SDS011;3533;51.246;6.850;2023-05-10T05:08:09;1.33;;;1.23;;
6985;SDS011;3533;51.246;6.850;2023-05-10T05:10:35;1.40;;;1.20;;
6985;SDS011;3533;51.246;6.850;2023-05-10T05:13:00;1.27;;;1.17;;
6985;SDS011;3533;51.246;6.850;2023-05-10T05:15:26;1.40;;;1.30;;
6985;SDS011;3533;51.246;6.850;2023-05-10T05:17:52;1.80;;;1.70;;
6985;SDS011;3533;51.246;6.850;2023-05-10T05:20:17;1.50;;;1.40;;
6985;SDS011;3533;51.246;6.850;2023-05-10T05:22:43;1.53;;;1.43;;
6985;SDS011;3533;51.246;6.850;2023-05-10T05:25:09;1.40;;;1.30;;
6985;SDS011;3533;51.246;6.850;2023-05-10T05:27:35;1.50;;;1.40;;
6985;SDS011;3533;51.246;6.850;2023-05-10T05:30:00;1.50;;;1.40;;
6985;SDS011;3533;51.246;6.850;2023-05-10T05:32:26;2.23;;;1.20;;
6985;SDS011;3533;51.246;6.850;2023-05-10T05:34:52;1.60;;;1.40;;
6985;SDS011;3533;51.246;6.850;2023-05-10T05:37:18;1.80;;;1.50;;
6985;SDS011;3533;51.246;6.850;2023-05-10T05:39:45;1.57;;;1.47;;
6985;SDS011;3533;51.246;6.850;2023-05-10T05:42:11;1.77;;;1.67;;
6985;SDS011;3533;51.246;6.850;2023-05-10T05:44:37;1.50;;;1.40;;
6985;SDS011;3533;51.246;6.850;2023-05-10T05:47:03;1.70;;;1.60;;
6985;SDS011;3533;51.246;6.850;2023-05-10T05:49:29;1.40;;;1.30;;
6985;SDS011;3533;51.246;6.850;2023-05-10T05:51:58;1.50;;;1.40;;
6985;SDS011;3533;51.246;6.850;2023-05-10T05:54:25;1.33;;;1.23;;
6985;SDS011;3533;51.246;6.850;2023-05-10T05:56:53;1.80;;;1.70;;
6985;SDS011;3533;51.246;6.850;2023-05-10T05:59:19;1.80;;;1.70;;
6985;SDS011;3533;51.246;6.850;2023-05-10T06:01:45;1.93;;;1.83;;
6985;SDS011;3533;51.246;6.850;2023-05-10T06:04:10;1.60;;;1.50;;
6985;SDS011;3533;51.246;6.850;2023-05-10T06:06:36;1.47;;;1.37;;
6985;SDS011;3533;51.246;6.850;2023-05-10T06:09:01;1.50;;;1.40;;
6985;SDS011;3533;51.246;6.850;2023-05-10T06:11:27;1.60;;;1.50;;
6985;SDS011;3533;51.246;6.850;2023-05-10T06:13:53;2.23;;;1.83;;
6985;SDS011;3533;51.246;6.850;2023-05-10T06:16:18;1.70;;;1.60;;
6985;SDS011;3533;51.246;6.850;2023-05-10T06:18:44;1.73;;;1.63;;
6985;SDS011;3533;51.246;6.850;2023-05-10T06:21:09;1.57;;;1.40;;
6985;SDS011;3533;51.246;6.850;2023-05-10T06:23:35;1.80;;;1.60;;
6985;SDS011;3533;51.246;6.850;2023-05-10T06:26:00;1.60;;;1.50;;
6985;SDS011;3533;51.246;6.850;2023-05-10T06:28:26;1.70;;;1.60;;
6985;SDS011;3533;51.246;6.850;2023-05-10T06:30:51;1.60;;;1.50;;
6985;SDS011;3533;51.246;6.850;2023-05-10T06:33:17;1.80;;;1.70;;
6985;SDS011;3533;51.246;6.850;2023-05-10T06:35:42;1.60;;;1.50;;
6985;SDS011;3533;51.246;6.850;2023-05-10T06:38:08;1.80;;;1.70;;
6985;SDS011;3533;51.246;6.850;2023-05-10T06:40:33;2.13;;;1.90;;
6985;SDS011;3533;51.246;6.850;2023-05-10T06:42:59;1.60;;;1.50;;
6985;SDS011;3533;51.246;6.850;2023-05-10T06:45:24;1.53;;;1.43;;
6985;SDS011;3533;51.246;6.850;2023-05-10T06:47:50;1.50;;;1.40;;
6985;SDS011;3533;51.246;6.850;2023-05-10T06:50:16;1.67;;;1.57;;
6985;SDS011;3533;51.246;6.850;2023-05-10T06:52:41;1.90;;;1.80;;
6985;SDS011;3533;51.246;6.850;2023-05-10T06:55:07;1.60;;;1.50;;
6985;SDS011;3533;51.246;6.850;2023-05-10T06:57:33;1.53;;;1.43;;
6985;SDS011;3533;51.246;6.850;2023-05-10T06:59:59;1.80;;;1.70;;
6985;SDS011;3533;51.246;6.850;2023-05-10T07:02:25;1.60;;;1.50;;
6985;SDS011;3533;51.246;6.850;2023-05-10T07:04:51;1.87;;;1.77;;
6985;SDS011;3533;51.246;6.850;2023-05-10T07:07:16;1.63;;;1.53;;
6985;SDS011;3533;51.246;6.850;2023-05-10T07:09:42;2.30;;;2.20;;
6985;SDS011;3533;51.246;6.850;2023-05-10T07:12:08;1.63;;;1.53;;
6985;SDS011;3533;51.246;6.850;2023-05-10T07:14:33;1.77;;;1.67;;
6985;SDS011;3533;51.246;6.850;2023-05-10T07:16:59;1.90;;;1.80;;
6985;SDS011;3533;51.246;6.850;2023-05-10T07:19:24;1.80;;;1.70;;
6985;SDS011;3533;51.246;6.850;2023-05-10T07:21:50;1.70;;;1.60;;
6985;SDS011;3533;51.246;6.850;2023-05-10T07:24:15;2.23;;;1.60;;
6985;SDS011;3533;51.246;6.850;2023-05-10T07:26:41;1.70;;;1.60;;
6985;SDS011;3533;51.246;6.850;2023-05-10T07:29:06;1.80;;;1.70;;
6985;SDS011;3533;51.246;6.850;2023-05-10T07:31:32;1.70;;;1.60;;
6985;SDS011;3533;51.246;6.850;2023-05-10T07:33:58;1.83;;;1.70;;
6985;SDS011;3533;51.246;6.850;2023-05-10T07:36:23;1.80;;;1.70;;
6985;SDS011;3533;51.246;6.850;2023-05-10T07:38:49;1.60;;;1.50;;
6985;SDS011;3533;51.246;6.850;2023-05-10T07:41:15;2.07;;;1.97;;
6985;SDS011;3533;51.246;6.850;2023-05-10T07:43:40;1.70;;;1.60;;
6985;SDS011;3533;51.246;6.850;2023-05-10T07:46:06;2.00;;;1.90;;
6985;SDS011;3533;51.246;6.850;2023-05-10T07:48:31;1.93;;;1.83;;
6985;SDS011;3533;51.246;6.850;2023-05-10T07:50:57;2.13;;;2.03;;
6985;SDS011;3533;51.246;6.850;2023-05-10T07:53:22;1.70;;;1.60;;
6985;SDS011;3533;51.246;6.850;2023-05-10T07:55:51;2.17;;;2.07;;
6985;SDS011;3533;51.246;6.850;2023-05-10T07:58:21;1.90;;;1.80;;
6985;SDS011;3533;51.246;6.850;2023-05-10T08:00:47;3.07;;;2.17;;
6985;SDS011;3533;51.246;6.850;2023-05-10T08:03:14;2.23;;;2.10;;
6985;SDS011;3533;51.246;6.850;2023-05-10T08:05:39;1.90;;;1.80;;
6985;SDS011;3533;51.246;6.850;2023-05-10T08:08:05;2.17;;;1.97;;
6985;SDS011;3533;51.246;6.850;2023-05-10T08:10:31;1.77;;;1.67;;
6985;SDS011;3533;51.246;6.850;2023-05-10T08:12:57;2.03;;;1.93;;
6985;SDS011;3533;51.246;6.850;2023-05-10T08:15:23;2.30;;;2.20;;
6985;SDS011;3533;51.246;6.850;2023-05-10T08:17:49;2.10;;;2.00;;
6985;SDS011;3533;51.246;6.850;2023-05-10T08:20:15;2.07;;;1.97;;
6985;SDS011;3533;51.246;6.850;2023-05-10T08:22:43;2.53;;;2.33;;
6985;SDS011;3533;51.246;6.850;2023-05-10T08:25:12;2.20;;;2.10;;
6985;SDS011;3533;51.246;6.850;2023-05-10T08:27:37;2.20;;;2.10;;
6985;SDS011;3533;51.246;6.850;2023-05-10T08:30:03;2.40;;;2.30;;
6985;SDS011;3533;51.246;6.850;2023-05-10T08:32:29;2.90;;;2.70;;
6985;SDS011;3533;51.246;6.850;2023-05-10T08:34:54;2.90;;;2.70;;
6985;SDS011;3533;51.246;6.850;2023-05-10T08:37:22;2.47;;;2.27;;
6985;SDS011;3533;51.246;6.850;2023-05-10T08:39:48;2.73;;;2.53;;
6985;SDS011;3533;51.246;6.850;2023-05-10T08:42:15;2.50;;;2.40;;
6985;SDS011;3533;51.246;6.850;2023-05-10T08:44:45;2.80;;;2.60;;
6985;SDS011;3533;51.246;6.850;2023-05-10T08:47:13;2.67;;;2.47;;
6985;SDS011;3533;51.246;6.850;2023-05-10T08:49:43;2.70;;;2.50;;
6985;SDS011;3533;51.246;6.850;2023-05-10T08:52:11;3.07;;;2.83;;
6985;SDS011;3533;51.246;6.850;2023-05-10T08:54:40;2.40;;;2.30;;
6985;SDS011;3533;51.246;6.850;2023-05-10T08:57:06;2.53;;;2.43;;
6985;SDS011;3533;51.246;6.850;2023-05-10T08:59:32;3.33;;;3.13;;
6985;SDS011;3533;51.246;6.850;2023-05-10T09:01:58;3.00;;;2.80;;
6985;SDS011;3533;51.246;6.850;2023-05-10T09:04:25;3.27;;;2.97;;
6985;SDS011;3533;51.246;6.850;2023-05-10T09:06:51;3.00;;;2.80;;
6985;SDS011;3533;51.246;6.850;2023-05-10T09:09:17;2.80;;;2.60;;
6985;SDS011;3533;51.246;6.850;2023-05-10T09:11:44;2.30;;;2.20;;
6985;SDS011;3533;51.246;6.850;2023-05-10T09:14:10;3.20;;;3.00;;
6985;SDS011;3533;51.246;6.850;2023-05-10T09:16:37;2.40;;;2.30;;
6985;SDS011;3533;51.246;6.850;2023-05-10T09:19:03;3.40;;;3.20;;
6985;SDS011;3533;51.246;6.850;2023-05-10T09:21:29;3.10;;;2.90;;
6985;SDS011;3533;51.246;6.850;2023-05-10T09:23:56;2.67;;;2.47;;
6985;SDS011;3533;51.246;6.850;2023-05-10T09:26:21;3.17;;;2.97;;
6985;SDS011;3533;51.246;6.850;2023-05-10T09:28:55;2.80;;;2.60;;
6985;SDS011;3533;51.246;6.850;2023-05-10T09:31:22;2.30;;;2.20;;
6985;SDS011;3533;51.246;6.850;2023-05-10T09:33:49;2.30;;;2.17;;
6985;SDS011;3533;51.246;6.850;2023-05-10T09:36:15;2.60;;;2.50;;
6985;SDS011;3533;51.246;6.850;2023-05-10T09:38:48;2.40;;;2.30;;
6985;SDS011;3533;51.246;6.850;2023-05-10T09:41:16;2.80;;;2.60;;
6985;SDS011;3533;51.246;6.850;2023-05-10T09:43:48;2.77;;;2.57;;
6985;SDS011;3533;51.246;6.850;2023-05-10T09:46:15;2.70;;;2.50;;
6985;SDS011;3533;51.246;6.850;2023-05-10T09:48:47;2.90;;;2.70;;
6985;SDS011;3533;51.246;6.850;2023-05-10T09:51:20;2.40;;;2.30;;
6985;SDS011;3533;51.246;6.850;2023-05-10T09:54:08;3.03;;;2.83;;
6985;SDS011;3533;51.246;6.850;2023-05-10T09:56:39;2.90;;;2.70;;
6985;SDS011;3533;51.246;6.850;2023-05-10T09:59:05;3.20;;;2.90;;
6985;SDS011;3533;51.246;6.850;2023-05-10T10:01:33;2.97;;;2.80;;
6985;SDS011;3533;51.246;6.850;2023-05-10T10:03:59;2.87;;;2.67;;
6985;SDS011;3533;51.246;6.850;2023-05-10T10:06:28;2.93;;;2.73;;
6985;SDS011;3533;51.246;6.850;2023-05-10T10:08:54;2.80;;;2.60;;
6985;SDS011;3533;51.246;6.850;2023-05-10T10:11:21;2.57;;;2.37;;
6985;SDS011;3533;51.246;6.850;2023-05-10T10:13:48;2.50;;;2.30;;
6985;SDS011;3533;51.246;6.850;2023-05-10T10:16:13;2.53;;;2.43;;
6985;SDS011;3533;51.246;6.850;2023-05-10T10:18:39;3.10;;;2.90;;
6985;SDS011;3533;51.246;6.850;2023-05-10T10:21:06;2.53;;;2.40;;
6985;SDS011;3533;51.246;6.850;2023-05-10T10:23:34;2.80;;;2.60;;
6985;SDS011;3533;51.246;6.850;2023-05-10T10:26:00;2.83;;;2.63;;
6985;SDS011;3533;51.246;6.850;2023-05-10T10:28:41;3.00;;;2.80;;
6985;SDS011;3533;51.246;6.850;2023-05-10T10:31:25;2.10;;;2.00;;
6985;SDS011;3533;51.246;6.850;2023-05-10T10:34:03;2.43;;;2.30;;
6985;SDS011;3533;51.246;6.850;2023-05-10T10:36:45;2.50;;;2.40;;
6985;SDS011;3533;51.246;6.850;2023-05-10T10:39:12;2.63;;;2.43;;
6985;SDS011;3533;51.246;6.850;2023-05-10T10:41:40;2.30;;;2.20;;
6985;SDS011;3533;51.246;6.850;2023-05-10T10:49:25;3.03;;;2.83;;
6985;SDS011;3533;51.246;6.850;2023-05-10T10:54:40;2.07;;;1.97;;
6985;SDS011;3533;51.246;6.850;2023-05-10T10:57:13;2.83;;;2.63;;
6985;SDS011;3533;51.246;6.850;2023-05-10T10:59:43;2.77;;;2.60;;
6985;SDS011;3533;51.246;6.850;2023-05-10T11:02:09;2.83;;;2.63;;
6985;SDS011;3533;51.246;6.850;2023-05-10T11:04:41;2.73;;;2.53;;
6985;SDS011;3533;51.246;6.850;2023-05-10T11:07:17;2.43;;;2.23;;
6985;SDS011;3533;51.246;6.850;2023-05-10T11:09:43;2.47;;;2.27;;
6985;SDS011;3533;51.246;6.850;2023-05-10T11:12:10;2.40;;;2.30;;
6985;SDS011;3533;51.246;6.850;2023-05-10T11:14:36;2.80;;;2.60;;
6985;SDS011;3533;51.246;6.850;2023-05-10T11:17:01;3.13;;;2.93;;
6985;SDS011;3533;51.246;6.850;2023-05-10T11:20:07;2.90;;;2.70;;
6985;SDS011;3533;51.246;6.850;2023-05-10T11:22:50;2.80;;;2.60;;
6985;SDS011;3533;51.246;6.850;2023-05-10T11:25:16;2.23;;;2.13;;
6985;SDS011;3533;51.246;6.850;2023-05-10T11:27:42;2.70;;;2.50;;
6985;SDS011;3533;51.246;6.850;2023-05-10T11:30:09;3.03;;;2.83;;
6985;SDS011;3533;51.246;6.850;2023-05-10T11:32:37;2.63;;;2.53;;
6985;SDS011;3533;51.246;6.850;2023-05-10T11:35:06;2.40;;;2.30;;
6985;SDS011;3533;51.246;6.850;2023-05-10T11:37:36;2.53;;;2.43;;
6985;SDS011;3533;51.246;6.850;2023-05-10T11:40:06;2.97;;;2.77;;
6985;SDS011;3533;51.246;6.850;2023-05-10T11:42:37;2.77;;;2.57;;
6985;SDS011;3533;51.246;6.850;2023-05-10T11:45:03;2.40;;;2.30;;
6985;SDS011;3533;51.246;6.850;2023-05-10T11:47:30;2.83;;;2.67;;
6985;SDS011;3533;51.246;6.850;2023-05-10T11:49:55;2.47;;;2.37;;
6985;SDS011;3533;51.246;6.850;2023-05-10T11:52:23;3.23;;;3.03;;
6985;SDS011;3533;51.246;6.850;2023-05-10T11:54:51;2.23;;;2.13;;
6985;SDS011;3533;51.246;6.850;2023-05-10T11:57:19;2.53;;;2.43;;
6985;SDS011;3533;51.246;6.850;2023-05-10T11:59:46;2.40;;;2.30;;
6985;SDS011;3533;51.246;6.850;2023-05-10T12:02:15;3.03;;;2.83;;
6985;SDS011;3533;51.246;6.850;2023-05-10T12:04:41;2.73;;;2.53;;
6985;SDS011;3533;51.246;6.850;2023-05-10T12:07:06;2.90;;;2.70;;
6985;SDS011;3533;51.246;6.850;2023-05-10T12:09:32;2.77;;;2.57;;
6985;SDS011;3533;51.246;6.850;2023-05-10T12:11:58;3.13;;;2.93;;
6985;SDS011;3533;51.246;6.850;2023-05-10T12:14:23;2.90;;;2.70;;
6985;SDS011;3533;51.246;6.850;2023-05-10T12:16:49;3.13;;;2.93;;
6985;SDS011;3533;51.246;6.850;2023-05-10T12:19:18;2.90;;;2.70;;
6985;SDS011;3533;51.246;6.850;2023-05-10T12:21:45;3.47;;;3.27;;
6985;SDS011;3533;51.246;6.850;2023-05-10T12:24:14;2.80;;;2.60;;
6985;SDS011;3533;51.246;6.850;2023-05-10T12:26:42;2.67;;;2.47;;
6985;SDS011;3533;51.246;6.850;2023-05-10T12:29:13;3.13;;;2.93;;
6985;SDS011;3533;51.246;6.850;2023-05-10T12:34:25;3.60;;;3.40;;
6985;SDS011;3533;51.246;6.850;2023-05-10T12:37:03;3.70;;;3.50;;
6985;SDS011;3533;51.246;6.850;2023-05-10T12:39:41;2.90;;;2.70;;
6985;SDS011;3533;51.246;6.850;2023-05-10T12:42:08;3.20;;;3.00;;
6985;SDS011;3533;51.246;6.850;2023-05-10T12:44:35;2.50;;;2.40;;
6985;SDS011;3533;51.246;6.850;2023-05-10T12:47:00;3.30;;;3.10;;
6985;SDS011;3533;51.246;6.850;2023-05-10T12:49:26;3.43;;;3.23;;
6985;SDS011;3533;51.246;6.850;2023-05-10T12:51:51;3.50;;;3.30;;
6985;SDS011;3533;51.246;6.850;2023-05-10T12:54:17;2.80;;;2.70;;
6985;SDS011;3533;51.246;6.850;2023-05-10T12:56:42;3.40;;;3.20;;
6985;SDS011;3533;51.246;6.850;2023-05-10T12:59:08;3.30;;;3.10;;
6985;SDS011;3533;51.246;6.850;2023-05-10T13:01:33;2.70;;;2.60;;
6985;SDS011;3533;51.246;6.850;2023-05-10T13:03:59;3.30;;;3.10;;
6985;SDS011;3533;51.246;6.850;2023-05-10T13:06:25;3.30;;;3.10;;
6985;SDS011;3533;51.246;6.850;2023-05-10T13:08:50;3.40;;;3.20;;
6985;SDS011;3533;51.246;6.850;2023-05-10T13:11:16;3.13;;;2.93;;
6985;SDS011;3533;51.246;6.850;2023-05-10T13:13:44;3.57;;;3.37;;
6985;SDS011;3533;51.246;6.850;2023-05-10T13:16:10;3.70;;;3.50;;
6985;SDS011;3533;51.246;6.850;2023-05-10T13:18:35;3.30;;;3.10;;
6985;SDS011;3533;51.246;6.850;2023-05-10T13:21:01;3.40;;;3.20;;
6985;SDS011;3533;51.246;6.850;2023-05-10T13:23:28;4.10;;;3.90;;
6985;SDS011;3533;51.246;6.850;2023-05-10T13:25:54;3.00;;;2.80;;
6985;SDS011;3533;51.246;6.850;2023-05-10T13:28:20;3.10;;;2.90;;
6985;SDS011;3533;51.246;6.850;2023-05-10T13:30:45;3.50;;;3.30;;
6985;SDS011;3533;51.246;6.850;2023-05-10T13:33:11;3.20;;;3.00;;
6985;SDS011;3533;51.246;6.850;2023-05-10T13:35:36;3.10;;;2.90;;
6985;SDS011;3533;51.246;6.850;2023-05-10T13:38:02;2.90;;;2.70;;
6985;SDS011;3533;51.246;6.850;2023-05-10T13:40:27;2.97;;;2.80;;
6985;SDS011;3533;51.246;6.850;2023-05-10T13:42:53;3.57;;;3.37;;
6985;SDS011;3533;51.246;6.850;2023-05-10T13:45:19;3.40;;;3.20;;
6985;SDS011;3533;51.246;6.850;2023-05-10T13:47:44;3.30;;;3.10;;
6985;SDS011;3533;51.246;6.850;2023-05-10T13:50:10;3.20;;;3.00;;
6985;SDS011;3533;51.246;6.850;2023-05-10T13:52:35;3.67;;;3.47;;
6985;SDS011;3533;51.246;6.850;2023-05-10T13:55:01;2.80;;;2.60;;
6985;SDS011;3533;51.246;6.850;2023-05-10T13:57:26;3.17;;;2.97;;
6985;SDS011;3533;51.246;6.850;2023-05-10T13:59:53;2.77;;;2.57;;
6985;SDS011;3533;51.246;6.850;2023-05-10T14:02:19;3.60;;;3.40;;
6985;SDS011;3533;51.246;6.850;2023-05-10T14:04:44;3.43;;;3.23;;
6985;SDS011;3533;51.246;6.850;2023-05-10T14:07:10;3.53;;;3.33;;
6985;SDS011;3533;51.246;6.850;2023-05-10T14:09:36;3.50;;;3.30;;
6985;SDS011;3533;51.246;6.850;2023-05-10T14:12:01;3.47;;;3.27;;
6985;SDS011;3533;51.246;6.850;2023-05-10T14:14:27;3.03;;;2.83;;
6985;SDS011;3533;51.246;6.850;2023-05-10T14:16:54;2.83;;;2.73;;
6985;SDS011;3533;51.246;6.850;2023-05-10T14:19:19;2.80;;;2.60;;
6985;SDS011;3533;51.246;6.850;2023-05-10T14:21:45;3.10;;;2.90;;
6985;SDS011;3533;51.246;6.850;2023-05-10T14:24:10;2.93;;;2.73;;
6985;SDS011;3533;51.246;6.850;2023-05-10T14:26:36;3.87;;;3.67;;
6985;SDS011;3533;51.246;6.850;2023-05-10T14:29:02;2.97;;;2.77;;
6985;SDS011;3533;51.246;6.850;2023-05-10T14:31:27;3.23;;;3.03;;
6985;SDS011;3533;51.246;6.850;2023-05-10T14:33:55;3.30;;;3.10;;
6985;SDS011;3533;51.246;6.850;2023-05-10T14:36:20;2.70;;;2.60;;
6985;SDS011;3533;51.246;6.850;2023-05-10T14:38:47;3.20;;;3.00;;
6985;SDS011;3533;51.246;6.850;2023-05-10T14:41:13;3.67;;;3.47;;
6985;SDS011;3533;51.246;6.850;2023-05-10T14:43:40;2.80;;;2.70;;
6985;SDS011;3533;51.246;6.850;2023-05-10T14:46:06;3.40;;;3.20;;
6985;SDS011;3533;51.246;6.850;2023-05-10T14:48:31;3.47;;;3.27;;
6985;SDS011;3533;51.246;6.850;2023-05-10T14:50:57;3.00;;;2.80;;
6985;SDS011;3533;51.246;6.850;2023-05-10T14:53:23;3.20;;;3.00;;
6985;SDS011;3533;51.246;6.850;2023-05-10T14:55:48;3.03;;;2.83;;
6985;SDS011;3533;51.246;6.850;2023-05-10T14:58:14;2.80;;;2.70;;
6985;SDS011;3533;51.246;6.850;2023-05-10T15:00:40;2.90;;;2.70;;
6985;SDS011;3533;51.246;6.850;2023-05-10T15:03:05;3.00;;;2.80;;
6985;SDS011;3533;51.246;6.850;2023-05-10T15:05:31;2.63;;;2.53;;
6985;SDS011;3533;51.246;6.850;2023-05-10T15:07:56;2.40;;;2.30;;
6985;SDS011;3533;51.246;6.850;2023-05-10T15:10:22;2.53;;;2.40;;
6985;SDS011;3533;51.246;6.850;2023-05-10T15:12:47;2.73;;;2.63;;
6985;SDS011;3533;51.246;6.850;2023-05-10T15:15:13;2.50;;;2.40;;
6985;SDS011;3533;51.246;6.850;2023-05-10T15:17:39;3.17;;;2.27;;
6985;SDS011;3533;51.246;6.850;2023-05-10T15:20:04;2.87;;;2.67;;
6985;SDS011;3533;51.246;6.850;2023-05-10T15:22:31;2.70;;;2.60;;
6985;SDS011;3533;51.246;6.850;2023-05-10T15:24:57;2.37;;;2.17;;
6985;SDS011;3533;51.246;6.850;2023-05-10T15:27:23;2.83;;;2.73;;
6985;SDS011;3533;51.246;6.850;2023-05-10T15:29:49;2.40;;;2.30;;
6985;SDS011;3533;51.246;6.850;2023-05-10T15:32:15;2.70;;;2.50;;
6985;SDS011;3533;51.246;6.850;2023-05-10T15:34:40;2.80;;;2.60;;